This is the latest recevied weather packets stored in our database for station/object KF6RAL-6. If no packets are shown the sender has not sent any weather packets the latest 10 day(s).
| Time | Temp. | Humidity | Pressure | Rain* | Wind** | Luminosity | Snow |
|---|---|---|---|---|---|---|---|
| 1777824528 | 16.67° C | 52% | 1014.1 hPa | 0 mm | - | - | - |
| 1777824107 | 16.11° C | 51% | 1013.7 hPa | 0 mm | - | - | - |
| 1777823686 | 16.11° C | 55% | 1013.8 hPa | 0 mm | - | - | - |
| 1777823265 | 15.56° C | 55% | 1013.9 hPa | 0 mm | - | - | - |
| 1777822844 | 15.56° C | 58% | 1013.7 hPa | 0 mm | - | - | - |
| 1777822423 | 15° C | 57% | 1013.8 hPa | 0 mm | - | - | - |
| 1777822002 | 15° C | 57% | 1013.9 hPa | 0 mm | - | - | - |
| 1777821581 | 15° C | 56% | 1014 hPa | 0 mm | - | - | - |
| 1777821160 | 15° C | 54% | 1013.9 hPa | 0 mm | - | - | - |
| 1777820739 | 15° C | 52% | 1013.9 hPa | 0 mm | - | - | - |
| 1777820318 | 15° C | 52% | 1013.8 hPa | 0 mm | - | - | - |
| 1777819897 | 15° C | 50% | 1013.9 hPa | 0 mm | - | - | - |
| 1777819476 | 15° C | 50% | 1013.8 hPa | 0 mm | - | - | - |
| 1777819055 | 14.44° C | 51% | 1013.9 hPa | 0 mm | - | - | - |
| 1777818634 | 14.44° C | 50% | 1013.9 hPa | 0 mm | - | - | - |
| 1777818213 | 13.89° C | 55% | 1014 hPa | 0 mm | - | - | - |
| 1777817792 | 12.78° C | 62% | 1014.2 hPa | 0 mm | - | - | - |
| 1777817371 | 12.78° C | 64% | 1014.1 hPa | 0 mm | - | - | - |
| 1777816950 | 12.22° C | 65% | 1013.5 hPa | 0 mm | - | - | - |
| 1777816529 | 12.22° C | 66% | 1014.3 hPa | 0 mm | - | - | - |
| 1777816108 | 11.67° C | 66% | 1013.8 hPa | 0 mm | - | - | - |
| 1777815687 | 11.67° C | 64% | 1013.8 hPa | 0 mm | - | - | - |
| 1777815266 | 12.22° C | 63% | 1013.7 hPa | 0 mm | - | - | - |
| 1777814845 | 12.78° C | 55% | 1013.4 hPa | 0 mm | - | - | - |
| 1777814424 | 12.78° C | 53% | 1013.3 hPa | 0 mm | - | - | - |
* Rain latest hour (hover to see other rain measurements)
** Current wind speed in m/s (hover to see current wind gust speed)